createdAt,value
2018-05-29T00:01:20.679Z,99.90
2018-05-29T00:03:48.228Z,99.90
2018-05-29T00:06:15.800Z,99.90
2018-05-29T00:08:43.364Z,99.90
2018-05-29T00:11:10.950Z,99.90
2018-05-29T00:13:38.513Z,99.90
2018-05-29T00:16:06.079Z,99.90
2018-05-29T00:18:33.687Z,99.90
2018-05-29T00:21:01.261Z,99.90
2018-05-29T00:23:28.806Z,99.90
2018-05-29T00:25:56.377Z,99.90
2018-05-29T00:28:23.926Z,99.90
2018-05-29T00:30:51.512Z,99.90
2018-05-29T00:33:19.057Z,99.90
2018-05-29T00:35:46.630Z,99.90
2018-05-29T00:38:14.170Z,99.90
2018-05-29T00:40:41.736Z,99.90
2018-05-29T00:43:09.288Z,99.90
2018-05-29T00:45:36.865Z,99.90
2018-05-29T00:48:04.403Z,99.90
2018-05-29T00:50:31.974Z,99.90
2018-05-29T00:52:59.522Z,99.90
2018-05-29T00:55:38.910Z,99.90
2018-05-29T00:58:06.445Z,99.90
2018-05-29T01:00:34.008Z,99.90
2018-05-29T01:03:01.589Z,99.90
2018-05-29T01:05:29.133Z,99.90
2018-05-29T01:07:56.696Z,99.90
2018-05-29T01:10:24.238Z,99.90
2018-05-29T01:12:51.810Z,99.90
2018-05-29T01:15:19.366Z,99.90
2018-05-29T01:17:46.946Z,99.90
2018-05-29T01:20:14.493Z,99.90
2018-05-29T01:22:42.065Z,99.90
2018-05-29T01:25:09.607Z,99.90
2018-05-29T01:27:37.240Z,99.90
2018-05-29T01:30:04.793Z,99.90
2018-05-29T01:32:32.369Z,99.90
2018-05-29T01:34:59.913Z,99.90
2018-05-29T01:37:27.502Z,99.90
2018-05-29T01:39:55.050Z,99.90
2018-05-29T01:42:22.613Z,99.90
2018-05-29T01:44:50.155Z,99.90
2018-05-29T01:47:18.502Z,99.90
2018-05-29T01:49:46.059Z,99.90
2018-05-29T01:52:13.626Z,99.90
2018-05-29T01:54:41.210Z,99.90
2018-05-29T01:57:09.555Z,99.90
2018-05-29T01:59:37.092Z,99.90
2018-05-29T02:02:04.658Z,99.90
2018-05-29T02:04:32.326Z,99.90
2018-05-29T02:06:59.798Z,99.90
2018-05-29T02:09:27.349Z,99.90
2018-05-29T02:11:54.914Z,99.90
2018-05-29T02:14:22.455Z,99.90
2018-05-29T02:16:50.037Z,99.90
2018-05-29T02:19:17.578Z,99.90
2018-05-29T02:21:45.146Z,99.90
2018-05-29T02:24:12.694Z,99.90
2018-05-29T02:26:40.270Z,99.90
2018-05-29T02:29:07.841Z,99.90
2018-05-29T02:31:35.436Z,99.90
2018-05-29T02:34:03.737Z,99.90
2018-05-29T02:36:31.274Z,99.90
2018-05-29T02:38:59.607Z,99.90
2018-05-29T02:41:27.148Z,99.90
2018-05-29T02:43:54.719Z,99.90
2018-05-29T02:46:22.264Z,99.90
2018-05-29T02:48:49.865Z,99.90
2018-05-29T02:51:17.410Z,99.90
2018-05-29T02:53:44.971Z,99.90
2018-05-29T02:56:12.510Z,99.90
2018-05-29T02:58:40.086Z,99.90
2018-05-29T03:01:07.640Z,99.90
2018-05-29T03:03:35.205Z,99.90
2018-05-29T03:06:02.742Z,99.90
2018-05-29T03:08:30.306Z,99.90
2018-05-29T03:10:57.861Z,99.90
2018-05-29T03:13:25.477Z,99.90
2018-05-29T03:15:53.010Z,99.90
2018-05-29T03:18:20.574Z,99.90
2018-05-29T03:20:48.121Z,99.90
2018-05-29T03:23:15.690Z,99.90
2018-05-29T03:25:43.249Z,99.90
2018-05-29T03:28:10.805Z,99.90
2018-05-29T03:30:38.343Z,99.90
2018-05-29T03:33:05.917Z,99.90
2018-05-29T03:35:33.458Z,99.90
2018-05-29T03:38:01.036Z,99.90
2018-05-29T03:40:28.575Z,99.90
2018-05-29T03:42:56.144Z,99.90
2018-05-29T03:45:23.695Z,99.90
2018-05-29T03:47:52.038Z,99.90
2018-05-29T03:50:19.587Z,99.90
2018-05-29T03:52:47.161Z,99.90
2018-05-29T03:55:14.713Z,99.90
2018-05-29T03:57:42.294Z,99.90
2018-05-29T04:00:10.612Z,99.90
2018-05-29T04:02:38.191Z,99.90
2018-05-29T04:05:05.734Z,99.90
2018-05-29T04:07:33.297Z,99.90
2018-05-29T04:10:00.896Z,99.90
2018-05-29T04:12:28.470Z,99.90
2018-05-29T04:14:56.075Z,99.90
2018-05-29T04:17:24.357Z,99.90
2018-05-29T04:19:51.963Z,99.90
2018-05-29T04:22:19.519Z,99.90
2018-05-29T04:24:47.094Z,99.90
2018-05-29T04:27:14.633Z,99.90
2018-05-29T04:29:42.198Z,99.90
2018-05-29T04:32:09.792Z,99.90
2018-05-29T04:34:38.137Z,99.90
2018-05-29T04:37:05.694Z,99.90
2018-05-29T04:39:33.266Z,99.90
2018-05-29T04:42:00.805Z,99.90
2018-05-29T04:44:28.391Z,99.90
2018-05-29T04:46:55.934Z,99.90
2018-05-29T04:49:23.512Z,99.90
2018-05-29T04:51:51.054Z,99.90
2018-05-29T04:54:18.644Z,99.90
2018-05-29T04:56:46.945Z,99.70
2018-05-29T04:59:14.514Z,99.60
2018-05-29T05:01:42.058Z,99.80
2018-05-29T05:04:10.403Z,99.40
2018-05-29T05:06:38.742Z,99.50
2018-05-29T05:09:06.324Z,99.40
2018-05-29T05:11:33.878Z,99.80
2018-05-29T05:14:01.484Z,99.90
2018-05-29T05:16:29.817Z,99.90
2018-05-29T05:18:57.395Z,99.90
2018-05-29T05:21:24.942Z,98.80
2018-05-29T05:23:52.533Z,96.40
2018-05-29T05:26:20.087Z,95.60
2018-05-29T05:28:47.670Z,94.40
2018-05-29T05:31:15.993Z,91.60
2018-05-29T05:33:43.569Z,91.60
2018-05-29T05:36:11.127Z,90.40
2018-05-29T05:38:38.755Z,87.90
2018-05-29T05:41:06.324Z,88.40
2018-05-29T05:43:33.900Z,89.20
2018-05-29T05:46:01.556Z,87.70
2018-05-29T05:48:29.934Z,83.20
2018-05-29T05:50:57.474Z,83.10
2018-05-29T05:53:25.055Z,83.20
2018-05-29T05:55:52.607Z,82.30
2018-05-29T05:58:20.162Z,83.80
2018-05-29T06:00:47.788Z,83.80
2018-05-29T06:03:16.098Z,89.70
2018-05-29T06:05:49.457Z,89.70
2018-05-29T06:08:20.968Z,90.50
2018-05-29T06:10:48.575Z,90.70
2018-05-29T06:13:16.117Z,91.60
2018-05-29T06:15:43.705Z,91.70
2018-05-29T06:18:12.006Z,90.80
2018-05-29T06:20:39.593Z,90.70
2018-05-29T06:23:07.166Z,91.60
2018-05-29T06:25:35.306Z,92.00
2018-05-29T06:28:02.880Z,92.00
2018-05-29T06:30:30.467Z,91.90
2018-05-29T06:32:58.244Z,91.40
2018-05-29T06:35:25.865Z,91.10
2018-05-29T06:37:55.557Z,90.80
2018-05-29T06:40:23.386Z,90.20
2018-05-29T06:42:51.475Z,90.20
2018-05-29T06:45:20.314Z,90.10
2018-05-29T06:47:47.853Z,89.40
2018-05-29T06:53:14.622Z,90.30
2018-05-29T06:55:42.206Z,90.30
2018-05-29T06:58:09.753Z,90.40
2018-05-29T07:00:37.327Z,90.40
2018-05-29T07:03:04.878Z,90.60
2018-05-29T07:05:32.448Z,90.80
2018-05-29T07:08:00.194Z,91.40
2018-05-29T07:10:28.104Z,91.40
2018-05-29T07:12:56.424Z,90.90
2018-05-29T07:15:24.012Z,90.90
2018-05-29T07:17:51.555Z,90.80
2018-05-29T07:20:20.119Z,90.00
2018-05-29T07:22:48.414Z,90.00
2018-05-29T07:25:17.554Z,90.30
2018-05-29T07:27:46.033Z,89.10
2018-05-29T07:30:13.609Z,89.00
2018-05-29T07:32:41.159Z,88.90
2018-05-29T07:35:08.754Z,89.50
2018-05-29T07:37:37.077Z,91.10
2018-05-29T07:40:04.654Z,91.00
2018-05-29T07:42:32.400Z,91.30
2018-05-29T07:44:59.974Z,91.30
2018-05-29T07:47:27.521Z,91.70
2018-05-29T07:49:55.656Z,91.80
2018-05-29T07:52:24.178Z,91.80
2018-05-29T07:54:51.747Z,91.70
2018-05-29T07:57:20.216Z,91.10
2018-05-29T07:59:48.921Z,89.90
2018-05-29T08:02:16.458Z,89.90
2018-05-29T08:04:44.041Z,89.30
2018-05-29T08:07:13.499Z,87.60
2018-05-29T08:09:41.187Z,87.20
2018-05-29T08:12:08.748Z,87.20
2018-05-29T08:14:36.309Z,88.20
2018-05-29T08:17:04.761Z,87.50
2018-05-29T08:19:33.173Z,86.90
2018-05-29T08:22:00.753Z,87.00
2018-05-29T08:24:28.302Z,86.80
2018-05-29T08:26:55.865Z,88.80
2018-05-29T08:29:24.173Z,89.40
2018-05-29T08:31:52.605Z,89.40
2018-05-29T08:34:20.192Z,89.80
2018-05-29T08:36:47.795Z,90.40
2018-05-29T08:39:16.117Z,90.90
2018-05-29T08:41:43.707Z,90.90
2018-05-29T08:44:11.261Z,89.60
2018-05-29T08:46:38.836Z,88.40
2018-05-29T08:49:06.415Z,88.20
2018-05-29T08:51:34.788Z,88.30
2018-05-29T08:54:03.103Z,88.30
2018-05-29T08:56:30.682Z,88.30
2018-05-29T08:58:58.217Z,88.80
2018-05-29T09:01:25.801Z,89.90
2018-05-29T09:03:53.350Z,89.50
2018-05-29T09:06:21.692Z,88.80
2018-05-29T09:08:50.015Z,88.90
2018-05-29T09:11:17.654Z,88.90
2018-05-29T09:13:45.217Z,89.40
2018-05-29T09:16:13.766Z,88.80
2018-05-29T09:18:42.366Z,90.00
2018-05-29T09:21:12.671Z,88.80
2018-05-29T09:23:42.287Z,89.30
2018-05-29T09:26:09.927Z,89.30
2018-05-29T09:28:37.486Z,89.10
2018-05-29T09:31:06.572Z,89.30
2018-05-29T09:33:34.207Z,89.00
2018-05-29T09:36:03.420Z,90.30
2018-05-29T09:38:31.798Z,89.90
2018-05-29T09:40:59.377Z,90.20
2018-05-29T09:43:26.989Z,90.60
2018-05-29T09:45:54.687Z,90.90
2018-05-29T09:48:23.005Z,90.80
2018-05-29T09:50:50.543Z,90.80
2018-05-29T09:53:18.124Z,91.10
2018-05-29T09:55:45.715Z,91.40
2018-05-29T09:58:13.289Z,91.30
2018-05-29T10:00:40.858Z,91.70
2018-05-29T10:03:08.411Z,91.20
2018-05-29T10:05:35.950Z,91.40
2018-05-29T10:08:04.282Z,91.80
2018-05-29T10:10:34.989Z,91.80
2018-05-29T10:13:02.570Z,92.20
2018-05-29T10:15:30.111Z,92.90
2018-05-29T10:17:57.701Z,92.90
2018-05-29T10:20:25.273Z,93.00
2018-05-29T10:22:52.856Z,93.20
2018-05-29T10:25:23.897Z,93.50
2018-05-29T10:27:53.328Z,93.70
2018-05-29T10:30:20.889Z,93.70
2018-05-29T10:32:48.476Z,93.50
2018-05-29T10:35:16.063Z,93.10
2018-05-29T10:37:43.659Z,92.90
2018-05-29T10:40:11.250Z,92.70
2018-05-29T10:42:38.822Z,92.10
2018-05-29T10:45:06.375Z,92.30
2018-05-29T10:47:33.968Z,92.80
2018-05-29T10:50:01.516Z,93.00
2018-05-29T10:52:29.101Z,92.70
2018-05-29T10:54:57.530Z,91.70
2018-05-29T10:57:25.097Z,91.70
2018-05-29T10:59:52.661Z,91.10
2018-05-29T11:02:20.262Z,91.00
2018-05-29T11:04:48.571Z,90.60
2018-05-29T11:07:16.467Z,90.50
2018-05-29T11:09:44.046Z,89.90
2018-05-29T11:12:12.327Z,89.00
2018-05-29T11:14:39.905Z,90.20
2018-05-29T11:17:07.479Z,90.20
2018-05-29T11:19:35.790Z,90.40
2018-05-29T11:22:03.561Z,90.40
2018-05-29T11:24:31.105Z,89.60
2018-05-29T11:26:58.661Z,89.50
2018-05-29T11:29:26.241Z,88.80
2018-05-29T11:31:53.806Z,88.80
2018-05-29T11:34:21.377Z,88.70
2018-05-29T11:36:48.936Z,88.50
2018-05-29T11:39:16.511Z,88.20
2018-05-29T11:41:44.056Z,89.00
2018-05-29T11:44:11.630Z,90.40
2018-05-29T11:46:39.806Z,89.00
2018-05-29T11:49:07.383Z,89.00
2018-05-29T11:51:34.927Z,88.70
2018-05-29T11:54:02.498Z,87.70
2018-05-29T11:56:30.061Z,87.70
2018-05-29T11:58:57.639Z,89.50
2018-05-29T12:01:25.959Z,89.30
2018-05-29T12:03:53.533Z,89.30
2018-05-29T12:06:21.120Z,90.00
2018-05-29T12:08:48.695Z,88.90
2018-05-29T12:11:17.033Z,89.60
2018-05-29T12:13:44.651Z,89.60
2018-05-29T12:16:12.964Z,89.80
2018-05-29T12:18:40.552Z,89.70
2018-05-29T12:21:08.189Z,90.00
2018-05-29T12:23:35.774Z,90.10
2018-05-29T12:26:03.318Z,89.70
2018-05-29T12:28:30.903Z,89.60
2018-05-29T12:30:58.457Z,89.00
2018-05-29T12:33:26.092Z,88.00
2018-05-29T12:35:54.566Z,88.80
2018-05-29T12:38:22.110Z,88.80
2018-05-29T12:40:49.689Z,89.70
2018-05-29T12:43:17.243Z,88.30
2018-05-29T12:45:44.822Z,87.70
2018-05-29T12:48:12.367Z,87.50
2018-05-29T12:50:39.951Z,86.90
2018-05-29T12:53:07.509Z,86.80
2018-05-29T12:55:35.082Z,86.20
2018-05-29T12:58:02.644Z,85.90
2018-05-29T13:00:30.214Z,85.50
2018-05-29T13:02:57.771Z,85.80
2018-05-29T13:05:25.388Z,86.20
2018-05-29T13:07:52.922Z,85.30
2018-05-29T13:10:21.252Z,84.80
2018-05-29T13:12:48.792Z,84.70
2018-05-29T13:15:16.406Z,84.80
2018-05-29T13:17:43.946Z,82.50
2018-05-29T13:20:11.514Z,80.80
2018-05-29T13:22:40.560Z,78.30
2018-05-29T13:25:08.152Z,78.30
2018-05-29T13:27:35.719Z,79.50
2018-05-29T13:30:03.290Z,78.90
2018-05-29T13:32:30.851Z,81.50
2018-05-29T13:34:58.422Z,81.80
2018-05-29T13:37:26.022Z,82.20
2018-05-29T13:39:53.616Z,83.50
2018-05-29T13:42:21.182Z,84.90
2018-05-29T13:44:48.758Z,83.30
2018-05-29T13:47:16.295Z,84.80
2018-05-29T13:49:43.878Z,84.90
2018-05-29T13:52:11.414Z,85.50
2018-05-29T13:54:39.792Z,86.50
2018-05-29T13:57:07.343Z,87.30
2018-05-29T13:59:34.922Z,87.90
2018-05-29T14:02:02.472Z,87.80
2018-05-29T14:04:30.280Z,87.70
2018-05-29T14:06:58.664Z,89.70
2018-05-29T14:09:26.996Z,90.80
2018-05-29T14:11:54.585Z,90.80
2018-05-29T14:14:22.134Z,90.20
2018-05-29T14:16:49.698Z,90.10
2018-05-29T14:19:17.241Z,90.70
2018-05-29T14:21:44.824Z,90.60
2018-05-29T14:24:12.373Z,90.50
2018-05-29T14:26:39.939Z,90.60
2018-05-29T14:29:07.490Z,90.30
2018-05-29T14:31:35.062Z,90.10
2018-05-29T14:34:02.614Z,90.30
2018-05-29T14:36:30.185Z,90.30
2018-05-29T14:38:57.731Z,90.00
2018-05-29T14:41:25.308Z,89.70
2018-05-29T14:43:52.890Z,89.00
2018-05-29T14:46:21.239Z,89.80
2018-05-29T14:48:48.791Z,89.60
2018-05-29T14:51:16.362Z,88.50
2018-05-29T14:53:43.921Z,87.30
2018-05-29T14:56:11.518Z,87.70
2018-05-29T14:58:39.859Z,86.40
2018-05-29T15:01:07.466Z,86.30
2018-05-29T15:03:35.014Z,85.80
2018-05-29T15:06:03.330Z,85.50
2018-05-29T15:08:30.916Z,84.90
2018-05-29T15:10:58.468Z,84.60
2018-05-29T15:13:26.053Z,85.20
2018-05-29T15:15:53.589Z,85.20
2018-05-29T15:18:21.149Z,86.30
2018-05-29T15:20:48.713Z,88.00
2018-05-29T15:23:16.279Z,86.80
2018-05-29T15:25:43.826Z,86.70
2018-05-29T15:28:11.389Z,87.20
2018-05-29T15:30:38.942Z,85.70
2018-05-29T15:33:06.511Z,86.90
2018-05-29T15:35:34.057Z,86.10
2018-05-29T15:38:01.627Z,85.70
2018-05-29T15:40:29.166Z,85.90
2018-05-29T15:42:56.745Z,87.60
2018-05-29T15:45:24.297Z,88.10
2018-05-29T15:47:51.865Z,89.00
2018-05-29T15:50:19.402Z,89.10
2018-05-29T15:52:47.007Z,89.80
2018-05-29T15:55:14.550Z,89.50
2018-05-29T15:57:42.149Z,90.00
2018-05-29T16:00:09.696Z,89.60
2018-05-29T16:02:37.255Z,89.60
2018-05-29T16:05:04.825Z,90.30
2018-05-29T16:07:32.388Z,89.00
2018-05-29T16:09:59.963Z,88.50
2018-05-29T16:12:28.287Z,87.00
2018-05-29T16:14:55.870Z,87.00
2018-05-29T16:17:23.412Z,88.00
2018-05-29T16:19:50.993Z,89.20
2018-05-29T16:22:18.549Z,88.60
2018-05-29T16:24:46.126Z,88.30
2018-05-29T16:27:14.436Z,89.20
2018-05-29T16:29:42.024Z,89.20
2018-05-29T16:32:09.574Z,90.00
2018-05-29T16:34:37.208Z,90.10
2018-05-29T16:37:04.729Z,89.70
2018-05-29T16:39:32.302Z,90.00
2018-05-29T16:41:59.850Z,90.00
2018-05-29T16:44:27.420Z,90.30
2018-05-29T16:46:54.967Z,90.60
2018-05-29T16:49:22.541Z,90.90
2018-05-29T16:51:50.086Z,90.50
2018-05-29T16:54:17.661Z,90.90
2018-05-29T16:56:45.219Z,90.90
2018-05-29T16:59:12.793Z,91.30
2018-05-29T17:01:40.338Z,91.50
2018-05-29T17:04:07.911Z,91.40
2018-05-29T17:06:35.454Z,91.60
2018-05-29T17:09:03.010Z,91.50
2018-05-29T17:11:30.589Z,91.40
2018-05-29T17:13:58.144Z,91.60
2018-05-29T17:16:25.729Z,91.10
2018-05-29T17:18:54.029Z,90.70
2018-05-29T17:21:21.594Z,90.70
2018-05-29T17:23:49.141Z,90.40
2018-05-29T17:26:17.478Z,90.10
2018-05-29T17:28:45.018Z,90.10
2018-05-29T17:31:12.617Z,90.20
2018-05-29T17:33:40.162Z,90.70
2018-05-29T17:36:07.742Z,90.20
2018-05-29T17:38:35.286Z,90.80
2018-05-29T17:41:02.860Z,90.70
2018-05-29T17:43:31.190Z,91.10
2018-05-29T17:45:58.766Z,91.00
2018-05-29T17:48:26.313Z,91.20
2018-05-29T17:50:53.893Z,91.30
2018-05-29T17:53:21.451Z,91.90
2018-05-29T17:55:49.040Z,91.70
2018-05-29T17:58:16.599Z,91.80
2018-05-29T18:00:44.157Z,91.80
2018-05-29T18:03:11.722Z,91.90
2018-05-29T18:05:39.277Z,91.60
2018-05-29T18:08:06.924Z,92.10
2018-05-29T18:10:34.425Z,92.20
2018-05-29T18:13:02.779Z,91.90
2018-05-29T18:15:30.370Z,91.90
2018-05-29T18:17:57.966Z,92.10
2018-05-29T18:20:25.510Z,92.40
2018-05-29T18:22:53.096Z,92.50
2018-05-29T18:25:20.641Z,93.00
2018-05-29T18:27:48.214Z,93.20
2018-05-29T18:30:15.763Z,92.90
2018-05-29T18:32:43.333Z,92.40
2018-05-29T18:35:10.878Z,92.30
2018-05-29T18:37:38.449Z,92.80
2018-05-29T18:40:05.991Z,92.50
2018-05-29T18:42:33.567Z,93.20
2018-05-29T18:45:01.114Z,93.30
2018-05-29T18:47:28.704Z,93.40
2018-05-29T18:49:56.258Z,93.90
2018-05-29T18:52:23.836Z,94.30
2018-05-29T18:54:51.392Z,95.00
2018-05-29T18:57:18.983Z,95.40
2018-05-29T18:59:47.297Z,95.50
2018-05-29T19:02:14.861Z,95.50
2018-05-29T19:04:42.403Z,95.80
2018-05-29T19:07:10.084Z,96.00
2018-05-29T19:09:37.633Z,96.30
2018-05-29T19:12:05.197Z,96.40
2018-05-29T19:14:32.742Z,96.40
2018-05-29T19:17:00.342Z,96.70
2018-05-29T19:19:27.917Z,96.90
2018-05-29T19:21:55.490Z,97.30
2018-05-29T19:24:23.036Z,97.50
2018-05-29T19:26:50.591Z,98.00
2018-05-29T19:29:18.177Z,98.20
2018-05-29T19:31:45.713Z,98.00
2018-05-29T19:34:13.289Z,98.20
2018-05-29T19:36:40.833Z,98.10
2018-05-29T19:39:08.408Z,98.60
2018-05-29T19:41:35.951Z,98.80
2018-05-29T19:44:03.538Z,98.90
2018-05-29T19:46:31.082Z,98.90
2018-05-29T19:48:58.655Z,99.00
2018-05-29T19:51:26.210Z,99.00
2018-05-29T19:53:53.800Z,99.10
2018-05-29T19:56:22.250Z,99.70
2018-05-29T19:58:49.825Z,99.80
2018-05-29T20:01:17.374Z,99.90
2018-05-29T20:03:44.983Z,99.40
2018-05-29T20:06:12.523Z,99.10
2018-05-29T20:08:40.879Z,99.60
2018-05-29T20:11:08.427Z,99.60
2018-05-29T20:13:35.994Z,99.90
2018-05-29T20:16:03.621Z,99.80
2018-05-29T20:18:31.210Z,99.90
2018-05-29T20:20:58.766Z,99.90
2018-05-29T20:23:26.363Z,99.90
2018-05-29T20:25:54.688Z,99.90
2018-05-29T20:28:22.407Z,99.90
2018-05-29T20:30:50.730Z,99.90
2018-05-29T20:33:18.306Z,99.90
2018-05-29T20:35:45.849Z,99.90
2018-05-29T20:38:13.420Z,99.90
2018-05-29T20:40:40.982Z,99.90
2018-05-29T20:43:08.549Z,99.90
2018-05-29T20:45:36.090Z,99.90
2018-05-29T20:48:03.666Z,99.90
2018-05-29T20:50:31.210Z,99.90
2018-05-29T20:52:58.786Z,99.90
2018-05-29T20:55:26.358Z,99.90
2018-05-29T20:57:53.915Z,99.90
2018-05-29T21:00:21.470Z,99.90
2018-05-29T21:02:49.039Z,99.90
2018-05-29T21:05:16.616Z,99.90
2018-05-29T21:07:44.193Z,99.90
2018-05-29T21:10:12.533Z,99.90
2018-05-29T21:12:40.083Z,99.90
2018-05-29T21:15:07.655Z,99.90
2018-05-29T21:17:35.224Z,99.90
2018-05-29T21:20:03.381Z,99.90
2018-05-29T21:22:30.944Z,99.90
2018-05-29T21:24:58.532Z,99.90
2018-05-29T21:27:26.856Z,99.90
2018-05-29T21:29:54.434Z,99.90
2018-05-29T21:32:21.980Z,99.90
2018-05-29T21:34:49.555Z,99.90
2018-05-29T21:37:17.098Z,99.90
2018-05-29T21:39:44.674Z,99.90
2018-05-29T21:42:12.217Z,99.90
2018-05-29T21:44:39.788Z,99.90
2018-05-29T21:47:07.362Z,99.90
2018-05-29T21:49:34.962Z,99.90
2018-05-29T21:52:02.524Z,99.90
2018-05-29T21:54:30.862Z,99.90
2018-05-29T21:56:58.410Z,99.90
2018-05-29T21:59:25.985Z,99.90
2018-05-29T22:01:53.529Z,99.90
2018-05-29T22:04:21.099Z,99.90
2018-05-29T22:06:48.650Z,99.90
2018-05-29T22:09:16.222Z,99.90
2018-05-29T22:11:43.803Z,99.90
2018-05-29T22:14:11.837Z,99.90
2018-05-29T22:16:39.382Z,99.90
2018-05-29T22:19:06.961Z,99.90
2018-05-29T22:21:34.501Z,99.90
2018-05-29T22:24:02.079Z,99.90
2018-05-29T22:26:29.621Z,99.90
2018-05-29T22:28:57.215Z,99.90
2018-05-29T22:31:24.760Z,99.90
2018-05-29T22:33:52.327Z,99.90
2018-05-29T22:36:19.872Z,99.90
2018-05-29T22:38:47.462Z,99.90
2018-05-29T22:41:14.998Z,99.90
2018-05-29T22:43:42.539Z,99.90
2018-05-29T22:46:10.886Z,99.90
2018-05-29T22:48:38.427Z,99.90
2018-05-29T22:51:06.001Z,99.90
2018-05-29T22:53:33.545Z,99.90
2018-05-29T22:56:01.124Z,99.90
2018-05-29T22:58:28.667Z,99.90
2018-05-29T23:00:56.226Z,99.90
2018-05-29T23:03:23.782Z,99.90
2018-05-29T23:05:51.358Z,99.90
2018-05-29T23:08:18.918Z,99.90
2018-05-29T23:10:46.493Z,99.90
2018-05-29T23:13:14.039Z,99.90
2018-05-29T23:15:41.614Z,99.90
2018-05-29T23:18:09.158Z,99.90
2018-05-29T23:20:36.741Z,99.90
2018-05-29T23:23:04.291Z,99.90
2018-05-29T23:25:31.873Z,99.90
2018-05-29T23:28:00.177Z,99.90
2018-05-29T23:30:27.774Z,99.90
2018-05-29T23:32:55.334Z,99.90
2018-05-29T23:35:23.629Z,99.90
2018-05-29T23:37:52.260Z,99.90
2018-05-29T23:40:19.841Z,99.90
2018-05-29T23:42:47.393Z,99.90
2018-05-29T23:45:14.958Z,99.90
2018-05-29T23:47:42.521Z,99.90
2018-05-29T23:50:10.102Z,99.90
2018-05-29T23:52:37.654Z,99.90
2018-05-29T23:55:05.226Z,99.90
2018-05-29T23:57:32.776Z,99.90
